sensor_id;sensor_type;location;lat;lon;timestamp;P1;durP1;ratioP1;P2;durP2;ratioP2
52940;SDS011;62001;53.366;6.636;2023-07-08T00:01:14;10.63;;;6.30;;
52940;SDS011;62001;53.366;6.636;2023-07-08T00:03:41;11.32;;;6.53;;
52940;SDS011;62001;53.366;6.636;2023-07-08T00:06:26;9.70;;;5.90;;
52940;SDS011;62001;53.366;6.636;2023-07-08T00:08:53;8.65;;;5.97;;
52940;SDS011;62001;53.366;6.636;2023-07-08T00:11:19;7.72;;;5.88;;
52940;SDS011;62001;53.366;6.636;2023-07-08T00:13:45;8.88;;;5.78;;
52940;SDS011;62001;53.366;6.636;2023-07-08T00:16:12;8.27;;;6.03;;
52940;SDS011;62001;53.366;6.636;2023-07-08T00:18:43;8.27;;;5.72;;
52940;SDS011;62001;53.366;6.636;2023-07-08T00:21:10;7.18;;;5.88;;
52940;SDS011;62001;53.366;6.636;2023-07-08T00:26:22;7.68;;;5.65;;
52940;SDS011;62001;53.366;6.636;2023-07-08T00:28:52;9.38;;;6.40;;
52940;SDS011;62001;53.366;6.636;2023-07-08T00:31:18;9.38;;;5.72;;
52940;SDS011;62001;53.366;6.636;2023-07-08T00:36:15;8.43;;;6.13;;
52940;SDS011;62001;53.366;6.636;2023-07-08T00:38:42;10.48;;;6.63;;
52940;SDS011;62001;53.366;6.636;2023-07-08T00:43:40;10.07;;;6.75;;
52940;SDS011;62001;53.366;6.636;2023-07-08T00:46:55;12.63;;;7.25;;
52940;SDS011;62001;53.366;6.636;2023-07-08T00:51:36;9.25;;;7.10;;
52940;SDS011;62001;53.366;6.636;2023-07-08T00:54:05;10.43;;;6.60;;
52940;SDS011;62001;53.366;6.636;2023-07-08T00:56:42;11.77;;;6.97;;
52940;SDS011;62001;53.366;6.636;2023-07-08T01:02:02;11.73;;;7.33;;
52940;SDS011;62001;53.366;6.636;2023-07-08T01:04:32;10.75;;;7.38;;
52940;SDS011;62001;53.366;6.636;2023-07-08T01:07:04;10.00;;;6.85;;
52940;SDS011;62001;53.366;6.636;2023-07-08T01:09:34;10.07;;;7.28;;
52940;SDS011;62001;53.366;6.636;2023-07-08T01:12:08;9.07;;;6.82;;
52940;SDS011;62001;53.366;6.636;2023-07-08T01:14:39;10.48;;;7.05;;
52940;SDS011;62001;53.366;6.636;2023-07-08T01:17:08;9.70;;;7.20;;
52940;SDS011;62001;53.366;6.636;2023-07-08T01:19:39;9.90;;;7.30;;
52940;SDS011;62001;53.366;6.636;2023-07-08T01:22:06;11.10;;;7.70;;
52940;SDS011;62001;53.366;6.636;2023-07-08T01:24:34;11.40;;;8.00;;
52940;SDS011;62001;53.366;6.636;2023-07-08T01:27:07;13.10;;;7.70;;
52940;SDS011;62001;53.366;6.636;2023-07-08T01:29:35;8.15;;;7.07;;
52940;SDS011;62001;53.366;6.636;2023-07-08T01:32:02;12.38;;;7.93;;
52940;SDS011;62001;53.366;6.636;2023-07-08T01:34:28;8.50;;;7.60;;
52940;SDS011;62001;53.366;6.636;2023-07-08T01:36:55;11.52;;;7.60;;
52940;SDS011;62001;53.366;6.636;2023-07-08T01:39:24;8.88;;;7.13;;
52940;SDS011;62001;53.366;6.636;2023-07-08T01:41:52;11.23;;;7.70;;
52940;SDS011;62001;53.366;6.636;2023-07-08T01:44:25;9.77;;;7.10;;
52940;SDS011;62001;53.366;6.636;2023-07-08T01:46:55;10.20;;;7.68;;
52940;SDS011;62001;53.366;6.636;2023-07-08T01:49:24;11.48;;;8.10;;
52940;SDS011;62001;53.366;6.636;2023-07-08T01:51:50;10.10;;;7.65;;
52940;SDS011;62001;53.366;6.636;2023-07-08T01:54:17;8.70;;;7.32;;
52940;SDS011;62001;53.366;6.636;2023-07-08T01:56:43;12.73;;;7.70;;
52940;SDS011;62001;53.366;6.636;2023-07-08T01:59:08;10.70;;;7.45;;
52940;SDS011;62001;53.366;6.636;2023-07-08T02:01:34;11.30;;;7.65;;
52940;SDS011;62001;53.366;6.636;2023-07-08T02:04:00;12.05;;;7.28;;
52940;SDS011;62001;53.366;6.636;2023-07-08T02:06:26;10.20;;;7.22;;
52940;SDS011;62001;53.366;6.636;2023-07-08T02:08:52;9.93;;;7.43;;
52940;SDS011;62001;53.366;6.636;2023-07-08T02:11:18;8.50;;;7.38;;
52940;SDS011;62001;53.366;6.636;2023-07-08T02:13:43;10.07;;;7.28;;
52940;SDS011;62001;53.366;6.636;2023-07-08T02:16:09;13.23;;;8.23;;
52940;SDS011;62001;53.366;6.636;2023-07-08T02:18:36;9.98;;;7.80;;
52940;SDS011;62001;53.366;6.636;2023-07-08T02:21:01;10.48;;;7.72;;
52940;SDS011;62001;53.366;6.636;2023-07-08T02:23:27;11.20;;;7.68;;
52940;SDS011;62001;53.366;6.636;2023-07-08T02:25:54;10.85;;;8.07;;
52940;SDS011;62001;53.366;6.636;2023-07-08T02:28:21;12.50;;;7.72;;
52940;SDS011;62001;53.366;6.636;2023-07-08T02:30:46;13.02;;;8.65;;
52940;SDS011;62001;53.366;6.636;2023-07-08T02:33:13;14.07;;;9.00;;
52940;SDS011;62001;53.366;6.636;2023-07-08T02:35:42;10.60;;;8.27;;
52940;SDS011;62001;53.366;6.636;2023-07-08T02:38:09;11.88;;;8.65;;
52940;SDS011;62001;53.366;6.636;2023-07-08T02:40:35;12.63;;;8.75;;
52940;SDS011;62001;53.366;6.636;2023-07-08T02:43:01;14.98;;;8.98;;
52940;SDS011;62001;53.366;6.636;2023-07-08T02:45:27;13.70;;;8.93;;
52940;SDS011;62001;53.366;6.636;2023-07-08T02:47:53;10.98;;;8.43;;
52940;SDS011;62001;53.366;6.636;2023-07-08T02:50:18;11.85;;;9.07;;
52940;SDS011;62001;53.366;6.636;2023-07-08T02:52:44;10.02;;;8.43;;
52940;SDS011;62001;53.366;6.636;2023-07-08T02:55:10;14.30;;;9.48;;
52940;SDS011;62001;53.366;6.636;2023-07-08T02:57:36;13.18;;;8.82;;
52940;SDS011;62001;53.366;6.636;2023-07-08T03:00:02;13.65;;;9.30;;
52940;SDS011;62001;53.366;6.636;2023-07-08T03:02:31;11.68;;;8.95;;
52940;SDS011;62001;53.366;6.636;2023-07-08T03:04:57;13.32;;;8.73;;
52940;SDS011;62001;53.366;6.636;2023-07-08T03:07:24;14.50;;;8.75;;
52940;SDS011;62001;53.366;6.636;2023-07-08T03:09:50;11.35;;;9.00;;
52940;SDS011;62001;53.366;6.636;2023-07-08T03:12:16;10.95;;;8.70;;
52940;SDS011;62001;53.366;6.636;2023-07-08T03:14:42;10.90;;;8.80;;
52940;SDS011;62001;53.366;6.636;2023-07-08T03:17:08;12.30;;;9.75;;
52940;SDS011;62001;53.366;6.636;2023-07-08T03:19:33;13.35;;;9.35;;
52940;SDS011;62001;53.366;6.636;2023-07-08T03:22:00;11.27;;;9.05;;
52940;SDS011;62001;53.366;6.636;2023-07-08T03:24:28;12.00;;;9.38;;
52940;SDS011;62001;53.366;6.636;2023-07-08T03:26:55;10.80;;;8.63;;
52940;SDS011;62001;53.366;6.636;2023-07-08T03:29:20;12.43;;;8.98;;
52940;SDS011;62001;53.366;6.636;2023-07-08T03:31:46;12.00;;;9.35;;
52940;SDS011;62001;53.366;6.636;2023-07-08T03:34:13;11.57;;;8.27;;
52940;SDS011;62001;53.366;6.636;2023-07-08T03:36:48;12.32;;;9.07;;
52940;SDS011;62001;53.366;6.636;2023-07-08T03:39:18;13.68;;;9.73;;
52940;SDS011;62001;53.366;6.636;2023-07-08T03:41:47;13.27;;;8.85;;
52940;SDS011;62001;53.366;6.636;2023-07-08T03:44:13;15.80;;;8.95;;
52940;SDS011;62001;53.366;6.636;2023-07-08T03:46:43;11.93;;;9.02;;
52940;SDS011;62001;53.366;6.636;2023-07-08T03:49:10;12.68;;;9.18;;
52940;SDS011;62001;53.366;6.636;2023-07-08T03:51:38;10.57;;;9.25;;
52940;SDS011;62001;53.366;6.636;2023-07-08T03:54:05;13.32;;;9.27;;
52940;SDS011;62001;53.366;6.636;2023-07-08T03:56:34;15.27;;;8.90;;
52940;SDS011;62001;53.366;6.636;2023-07-08T03:59:00;15.27;;;9.80;;
52940;SDS011;62001;53.366;6.636;2023-07-08T04:01:26;14.98;;;9.10;;
52940;SDS011;62001;53.366;6.636;2023-07-08T04:03:53;14.40;;;9.57;;
52940;SDS011;62001;53.366;6.636;2023-07-08T04:06:20;12.07;;;9.10;;
52940;SDS011;62001;53.366;6.636;2023-07-08T04:08:46;12.32;;;9.05;;
52940;SDS011;62001;53.366;6.636;2023-07-08T04:11:13;12.48;;;9.45;;
52940;SDS011;62001;53.366;6.636;2023-07-08T04:13:41;11.15;;;8.90;;
52940;SDS011;62001;53.366;6.636;2023-07-08T04:16:07;17.17;;;9.35;;
52940;SDS011;62001;53.366;6.636;2023-07-08T04:18:39;12.75;;;8.48;;
52940;SDS011;62001;53.366;6.636;2023-07-08T04:21:04;10.52;;;8.18;;
52940;SDS011;62001;53.366;6.636;2023-07-08T04:23:31;11.93;;;9.02;;
52940;SDS011;62001;53.366;6.636;2023-07-08T04:25:57;13.35;;;9.05;;
52940;SDS011;62001;53.366;6.636;2023-07-08T04:28:24;15.73;;;8.75;;
52940;SDS011;62001;53.366;6.636;2023-07-08T04:30:49;11.68;;;9.02;;
52940;SDS011;62001;53.366;6.636;2023-07-08T04:33:16;11.80;;;8.70;;
52940;SDS011;62001;53.366;6.636;2023-07-08T04:35:42;14.43;;;9.50;;
52940;SDS011;62001;53.366;6.636;2023-07-08T04:40:48;11.88;;;8.02;;
52940;SDS011;62001;53.366;6.636;2023-07-08T04:43:16;11.50;;;8.55;;
52940;SDS011;62001;53.366;6.636;2023-07-08T04:45:45;10.98;;;8.07;;
52940;SDS011;62001;53.366;6.636;2023-07-08T04:48:15;11.30;;;8.18;;
52940;SDS011;62001;53.366;6.636;2023-07-08T04:50:46;9.90;;;7.95;;
52940;SDS011;62001;53.366;6.636;2023-07-08T04:53:14;10.88;;;7.95;;
52940;SDS011;62001;53.366;6.636;2023-07-08T04:55:48;12.98;;;8.50;;
52940;SDS011;62001;53.366;6.636;2023-07-08T04:58:19;10.20;;;7.82;;
52940;SDS011;62001;53.366;6.636;2023-07-08T05:00:44;11.27;;;8.27;;
52940;SDS011;62001;53.366;6.636;2023-07-08T05:03:10;10.25;;;7.93;;
52940;SDS011;62001;53.366;6.636;2023-07-08T05:05:36;12.85;;;7.75;;
52940;SDS011;62001;53.366;6.636;2023-07-08T05:08:02;10.60;;;8.00;;
52940;SDS011;62001;53.366;6.636;2023-07-08T05:10:28;8.80;;;7.70;;
52940;SDS011;62001;53.366;6.636;2023-07-08T05:12:54;9.60;;;7.97;;
52940;SDS011;62001;53.366;6.636;2023-07-08T05:15:20;11.68;;;7.47;;
52940;SDS011;62001;53.366;6.636;2023-07-08T05:17:46;10.05;;;7.13;;
52940;SDS011;62001;53.366;6.636;2023-07-08T05:20:13;9.00;;;6.35;;
52940;SDS011;62001;53.366;6.636;2023-07-08T05:22:40;7.45;;;5.65;;
52940;SDS011;62001;53.366;6.636;2023-07-08T05:25:07;8.05;;;6.18;;
52940;SDS011;62001;53.366;6.636;2023-07-08T05:27:34;8.88;;;5.82;;
52940;SDS011;62001;53.366;6.636;2023-07-08T05:30:03;8.65;;;6.00;;
52940;SDS011;62001;53.366;6.636;2023-07-08T05:32:30;7.45;;;5.82;;
52940;SDS011;62001;53.366;6.636;2023-07-08T05:34:57;8.02;;;5.80;;
52940;SDS011;62001;53.366;6.636;2023-07-08T05:37:23;10.27;;;5.07;;
52940;SDS011;62001;53.366;6.636;2023-07-08T05:42:21;7.97;;;4.82;;
52940;SDS011;62001;53.366;6.636;2023-07-08T05:44:47;6.78;;;4.75;;
52940;SDS011;62001;53.366;6.636;2023-07-08T05:47:14;7.75;;;5.05;;
52940;SDS011;62001;53.366;6.636;2023-07-08T05:49:40;8.07;;;5.40;;
52940;SDS011;62001;53.366;6.636;2023-07-08T05:52:07;8.50;;;5.15;;
52940;SDS011;62001;53.366;6.636;2023-07-08T05:54:36;7.47;;;4.80;;
52940;SDS011;62001;53.366;6.636;2023-07-08T05:57:03;8.20;;;4.97;;
52940;SDS011;62001;53.366;6.636;2023-07-08T05:59:30;5.85;;;4.20;;
52940;SDS011;62001;53.366;6.636;2023-07-08T06:01:56;5.97;;;4.50;;
52940;SDS011;62001;53.366;6.636;2023-07-08T06:04:30;8.65;;;4.40;;
52940;SDS011;62001;53.366;6.636;2023-07-08T06:06:59;6.32;;;4.70;;
52940;SDS011;62001;53.366;6.636;2023-07-08T06:09:32;6.57;;;4.55;;
52940;SDS011;62001;53.366;6.636;2023-07-08T06:11:58;6.60;;;4.35;;
52940;SDS011;62001;53.366;6.636;2023-07-08T06:14:24;6.78;;;4.28;;
52940;SDS011;62001;53.366;6.636;2023-07-08T06:16:50;7.32;;;4.15;;
52940;SDS011;62001;53.366;6.636;2023-07-08T06:19:16;5.20;;;4.10;;
52940;SDS011;62001;53.366;6.636;2023-07-08T06:21:42;6.72;;;3.88;;
52940;SDS011;62001;53.366;6.636;2023-07-08T06:24:08;6.18;;;4.35;;
52940;SDS011;62001;53.366;6.636;2023-07-08T06:26:34;9.98;;;4.30;;
52940;SDS011;62001;53.366;6.636;2023-07-08T06:29:00;5.97;;;4.28;;
52940;SDS011;62001;53.366;6.636;2023-07-08T06:31:26;11.07;;;4.53;;
52940;SDS011;62001;53.366;6.636;2023-07-08T06:33:53;7.07;;;4.10;;
52940;SDS011;62001;53.366;6.636;2023-07-08T06:36:19;5.28;;;4.10;;
52940;SDS011;62001;53.366;6.636;2023-07-08T06:38:45;7.07;;;4.05;;
52940;SDS011;62001;53.366;6.636;2023-07-08T06:41:11;8.50;;;4.50;;
52940;SDS011;62001;53.366;6.636;2023-07-08T06:43:37;6.78;;;4.13;;
52940;SDS011;62001;53.366;6.636;2023-07-08T06:46:02;6.25;;;3.90;;
52940;SDS011;62001;53.366;6.636;2023-07-08T06:48:28;4.35;;;3.70;;
52940;SDS011;62001;53.366;6.636;2023-07-08T06:50:54;10.80;;;3.85;;
52940;SDS011;62001;53.366;6.636;2023-07-08T06:53:20;6.53;;;4.00;;
52940;SDS011;62001;53.366;6.636;2023-07-08T06:55:46;6.25;;;3.60;;
52940;SDS011;62001;53.366;6.636;2023-07-08T06:58:12;7.07;;;3.80;;
52940;SDS011;62001;53.366;6.636;2023-07-08T07:00:41;8.82;;;4.03;;
52940;SDS011;62001;53.366;6.636;2023-07-08T07:03:08;10.15;;;3.85;;
52940;SDS011;62001;53.366;6.636;2023-07-08T07:05:34;5.68;;;3.78;;
52940;SDS011;62001;53.366;6.636;2023-07-08T07:08:00;4.90;;;3.53;;
52940;SDS011;62001;53.366;6.636;2023-07-08T07:10:26;5.95;;;3.67;;
52940;SDS011;62001;53.366;6.636;2023-07-08T07:12:52;5.97;;;3.60;;
52940;SDS011;62001;53.366;6.636;2023-07-08T07:15:18;8.18;;;3.90;;
52940;SDS011;62001;53.366;6.636;2023-07-08T07:17:44;8.23;;;3.90;;
52940;SDS011;62001;53.366;6.636;2023-07-08T07:20:10;5.57;;;3.08;;
52940;SDS011;62001;53.366;6.636;2023-07-08T07:22:36;4.60;;;2.95;;
52940;SDS011;62001;53.366;6.636;2023-07-08T07:25:02;6.18;;;3.47;;
52940;SDS011;62001;53.366;6.636;2023-07-08T07:27:28;10.00;;;4.13;;
52940;SDS011;62001;53.366;6.636;2023-07-08T07:29:54;7.22;;;4.03;;
52940;SDS011;62001;53.366;6.636;2023-07-08T07:32:22;6.97;;;3.53;;
52940;SDS011;62001;53.366;6.636;2023-07-08T07:34:49;5.32;;;3.25;;
52940;SDS011;62001;53.366;6.636;2023-07-08T07:37:16;6.70;;;3.42;;
52940;SDS011;62001;53.366;6.636;2023-07-08T07:39:43;6.22;;;3.30;;
52940;SDS011;62001;53.366;6.636;2023-07-08T07:42:09;5.53;;;3.60;;
52940;SDS011;62001;53.366;6.636;2023-07-08T07:44:35;10.07;;;3.50;;
52940;SDS011;62001;53.366;6.636;2023-07-08T07:47:04;5.68;;;3.42;;
52940;SDS011;62001;53.366;6.636;2023-07-08T07:49:31;9.20;;;3.58;;
52940;SDS011;62001;53.366;6.636;2023-07-08T07:51:57;9.60;;;4.10;;
52940;SDS011;62001;53.366;6.636;2023-07-08T07:54:23;14.07;;;3.75;;
52940;SDS011;62001;53.366;6.636;2023-07-08T07:56:50;11.88;;;3.65;;
52940;SDS011;62001;53.366;6.636;2023-07-08T07:59:16;7.40;;;3.42;;
52940;SDS011;62001;53.366;6.636;2023-07-08T08:01:42;7.10;;;3.33;;
52940;SDS011;62001;53.366;6.636;2023-07-08T08:04:09;4.47;;;2.97;;
52940;SDS011;62001;53.366;6.636;2023-07-08T08:06:35;8.75;;;3.50;;
52940;SDS011;62001;53.366;6.636;2023-07-08T08:09:02;6.07;;;3.30;;
52940;SDS011;62001;53.366;6.636;2023-07-08T08:11:28;3.72;;;3.03;;
52940;SDS011;62001;53.366;6.636;2023-07-08T08:13:54;6.80;;;3.15;;
52940;SDS011;62001;53.366;6.636;2023-07-08T08:16:20;6.85;;;3.05;;
52940;SDS011;62001;53.366;6.636;2023-07-08T08:18:47;7.68;;;3.40;;
52940;SDS011;62001;53.366;6.636;2023-07-08T08:21:12;4.30;;;3.33;;
52940;SDS011;62001;53.366;6.636;2023-07-08T08:23:38;4.75;;;3.00;;
52940;SDS011;62001;53.366;6.636;2023-07-08T08:26:04;4.70;;;3.00;;
52940;SDS011;62001;53.366;6.636;2023-07-08T08:28:30;5.25;;;2.88;;
52940;SDS011;62001;53.366;6.636;2023-07-08T08:30:56;6.57;;;2.92;;
52940;SDS011;62001;53.366;6.636;2023-07-08T08:33:22;5.30;;;2.90;;
52940;SDS011;62001;53.366;6.636;2023-07-08T08:35:48;4.60;;;2.80;;
52940;SDS011;62001;53.366;6.636;2023-07-08T08:38:14;5.43;;;3.00;;
52940;SDS011;62001;53.366;6.636;2023-07-08T08:40:41;6.90;;;2.80;;
52940;SDS011;62001;53.366;6.636;2023-07-08T08:43:12;5.22;;;3.15;;
52940;SDS011;62001;53.366;6.636;2023-07-08T08:45:43;5.15;;;2.80;;
52940;SDS011;62001;53.366;6.636;2023-07-08T08:48:23;3.88;;;3.00;;
52940;SDS011;62001;53.366;6.636;2023-07-08T08:53:25;9.40;;;2.80;;
52940;SDS011;62001;53.366;6.636;2023-07-08T08:55:57;5.60;;;2.90;;
52940;SDS011;62001;53.366;6.636;2023-07-08T08:58:43;4.97;;;3.10;;
52940;SDS011;62001;53.366;6.636;2023-07-08T09:01:13;4.68;;;2.85;;
52940;SDS011;62001;53.366;6.636;2023-07-08T09:06:29;5.07;;;2.65;;
52940;SDS011;62001;53.366;6.636;2023-07-08T09:09:00;4.63;;;2.85;;
52940;SDS011;62001;53.366;6.636;2023-07-08T09:14:28;5.50;;;2.92;;
52940;SDS011;62001;53.366;6.636;2023-07-08T09:17:29;4.13;;;2.90;;
52940;SDS011;62001;53.366;6.636;2023-07-08T09:27:32;5.65;;;3.10;;
52940;SDS011;62001;53.366;6.636;2023-07-08T09:29:58;5.65;;;2.75;;
52940;SDS011;62001;53.366;6.636;2023-07-08T09:32:24;5.20;;;3.05;;
52940;SDS011;62001;53.366;6.636;2023-07-08T09:34:56;6.07;;;3.10;;
52940;SDS011;62001;53.366;6.636;2023-07-08T09:37:30;5.38;;;3.20;;
52940;SDS011;62001;53.366;6.636;2023-07-08T09:40:04;4.63;;;2.90;;
52940;SDS011;62001;53.366;6.636;2023-07-08T09:45:48;6.57;;;3.08;;
52940;SDS011;62001;53.366;6.636;2023-07-08T09:48:25;4.95;;;2.78;;
52940;SDS011;62001;53.366;6.636;2023-07-08T09:51:00;4.82;;;3.00;;
52940;SDS011;62001;53.366;6.636;2023-07-08T09:53:27;6.20;;;3.47;;
52940;SDS011;62001;53.366;6.636;2023-07-08T09:55:53;4.45;;;3.10;;
52940;SDS011;62001;53.366;6.636;2023-07-08T09:58:24;4.70;;;2.90;;
52940;SDS011;62001;53.366;6.636;2023-07-08T10:01:10;4.70;;;3.10;;
52940;SDS011;62001;53.366;6.636;2023-07-08T10:03:43;5.95;;;2.85;;
52940;SDS011;62001;53.366;6.636;2023-07-08T10:06:28;3.92;;;3.00;;
52940;SDS011;62001;53.366;6.636;2023-07-08T10:11:46;5.93;;;2.80;;
52940;SDS011;62001;53.366;6.636;2023-07-08T10:14:23;3.63;;;3.10;;
52940;SDS011;62001;53.366;6.636;2023-07-08T10:16:52;6.55;;;2.97;;
52940;SDS011;62001;53.366;6.636;2023-07-08T10:19:21;4.97;;;2.83;;
52940;SDS011;62001;53.366;6.636;2023-07-08T10:24:30;4.90;;;2.90;;
52940;SDS011;62001;53.366;6.636;2023-07-08T10:40:34;6.78;;;2.78;;
52940;SDS011;62001;53.366;6.636;2023-07-08T10:56:54;3.85;;;2.65;;
52940;SDS011;62001;53.366;6.636;2023-07-08T11:05:31;7.82;;;3.20;;
52940;SDS011;62001;53.366;6.636;2023-07-08T11:10:59;5.55;;;2.95;;
52940;SDS011;62001;53.366;6.636;2023-07-08T11:13:30;5.43;;;2.85;;
52940;SDS011;62001;53.366;6.636;2023-07-08T11:16:17;5.18;;;3.30;;
52940;SDS011;62001;53.366;6.636;2023-07-08T11:18:56;5.50;;;3.17;;
52940;SDS011;62001;53.366;6.636;2023-07-08T11:21:40;6.03;;;3.10;;
52940;SDS011;62001;53.366;6.636;2023-07-08T11:24:12;4.55;;;2.95;;
52940;SDS011;62001;53.366;6.636;2023-07-08T11:26:52;5.70;;;3.30;;
52940;SDS011;62001;53.366;6.636;2023-07-08T11:29:24;3.80;;;2.88;;
52940;SDS011;62001;53.366;6.636;2023-07-08T11:31:57;7.30;;;3.40;;
52940;SDS011;62001;53.366;6.636;2023-07-08T11:34:23;10.57;;;3.30;;
52940;SDS011;62001;53.366;6.636;2023-07-08T11:36:50;5.40;;;3.15;;
52940;SDS011;62001;53.366;6.636;2023-07-08T11:39:32;5.43;;;3.00;;
52940;SDS011;62001;53.366;6.636;2023-07-08T11:42:14;5.68;;;3.20;;
52940;SDS011;62001;53.366;6.636;2023-07-08T11:44:56;4.15;;;2.88;;
52940;SDS011;62001;53.366;6.636;2023-07-08T11:47:32;4.38;;;3.13;;
52940;SDS011;62001;53.366;6.636;2023-07-08T11:50:15;4.75;;;3.05;;
52940;SDS011;62001;53.366;6.636;2023-07-08T11:52:50;3.85;;;3.10;;
52940;SDS011;62001;53.366;6.636;2023-07-08T11:55:37;4.47;;;3.22;;
52940;SDS011;62001;53.366;6.636;2023-07-08T11:58:07;6.10;;;3.28;;
52940;SDS011;62001;53.366;6.636;2023-07-08T12:00:40;5.20;;;3.40;;
52940;SDS011;62001;53.366;6.636;2023-07-08T12:03:22;6.60;;;3.40;;
52940;SDS011;62001;53.366;6.636;2023-07-08T12:05:53;4.40;;;3.00;;
52940;SDS011;62001;53.366;6.636;2023-07-08T12:08:22;7.97;;;3.40;;
52940;SDS011;62001;53.366;6.636;2023-07-08T12:11:03;8.27;;;3.28;;
52940;SDS011;62001;53.366;6.636;2023-07-08T12:13:36;5.00;;;3.50;;
52940;SDS011;62001;53.366;6.636;2023-07-08T12:16:02;4.97;;;3.15;;
52940;SDS011;62001;53.366;6.636;2023-07-08T12:18:30;5.07;;;3.38;;
52940;SDS011;62001;53.366;6.636;2023-07-08T12:21:01;5.15;;;3.10;;
52940;SDS011;62001;53.366;6.636;2023-07-08T12:23:27;8.27;;;3.33;;
52940;SDS011;62001;53.366;6.636;2023-07-08T12:25:56;3.80;;;3.13;;
52940;SDS011;62001;53.366;6.636;2023-07-08T12:28:26;6.05;;;3.10;;
52940;SDS011;62001;53.366;6.636;2023-07-08T12:30:54;3.65;;;3.00;;
52940;SDS011;62001;53.366;6.636;2023-07-08T12:33:28;4.88;;;3.20;;
52940;SDS011;62001;53.366;6.636;2023-07-08T12:35:59;8.05;;;3.75;;
52940;SDS011;62001;53.366;6.636;2023-07-08T12:38:28;5.22;;;3.22;;
52940;SDS011;62001;53.366;6.636;2023-07-08T12:40:57;4.63;;;3.70;;
52940;SDS011;62001;53.366;6.636;2023-07-08T12:45:51;6.53;;;3.58;;
52940;SDS011;62001;53.366;6.636;2023-07-08T12:48:18;6.32;;;3.72;;
52940;SDS011;62001;53.366;6.636;2023-07-08T12:50:44;3.67;;;3.28;;
52940;SDS011;62001;53.366;6.636;2023-07-08T12:53:11;5.25;;;3.30;;
52940;SDS011;62001;53.366;6.636;2023-07-08T12:55:39;4.47;;;3.55;;
52940;SDS011;62001;53.366;6.636;2023-07-08T12:58:09;6.18;;;3.67;;
52940;SDS011;62001;53.366;6.636;2023-07-08T13:00:39;7.60;;;4.07;;
52940;SDS011;62001;53.366;6.636;2023-07-08T13:03:13;6.35;;;3.55;;
52940;SDS011;62001;53.366;6.636;2023-07-08T13:05:41;7.30;;;3.53;;
52940;SDS011;62001;53.366;6.636;2023-07-08T13:08:12;8.60;;;3.75;;
52940;SDS011;62001;53.366;6.636;2023-07-08T13:10:40;6.13;;;3.42;;
52940;SDS011;62001;53.366;6.636;2023-07-08T13:13:18;5.25;;;3.58;;
52940;SDS011;62001;53.366;6.636;2023-07-08T13:15:47;3.85;;;3.42;;
52940;SDS011;62001;53.366;6.636;2023-07-08T13:18:17;4.03;;;3.38;;
52940;SDS011;62001;53.366;6.636;2023-07-08T13:20:49;7.10;;;4.00;;
52940;SDS011;62001;53.366;6.636;2023-07-08T13:23:17;4.88;;;3.60;;
52940;SDS011;62001;53.366;6.636;2023-07-08T13:25:46;4.90;;;3.72;;
52940;SDS011;62001;53.366;6.636;2023-07-08T13:28:19;7.43;;;3.75;;
52940;SDS011;62001;53.366;6.636;2023-07-08T13:30:52;7.32;;;4.25;;
52940;SDS011;62001;53.366;6.636;2023-07-08T13:33:22;5.55;;;4.07;;
52940;SDS011;62001;53.366;6.636;2023-07-08T13:35:56;4.20;;;3.50;;
52940;SDS011;62001;53.366;6.636;2023-07-08T13:38:23;5.97;;;3.55;;
52940;SDS011;62001;53.366;6.636;2023-07-08T13:40:56;4.82;;;3.70;;
52940;SDS011;62001;53.366;6.636;2023-07-08T13:43:26;5.78;;;4.05;;
52940;SDS011;62001;53.366;6.636;2023-07-08T13:45:55;10.50;;;4.00;;
52940;SDS011;62001;53.366;6.636;2023-07-08T13:50:57;6.55;;;3.88;;
52940;SDS011;62001;53.366;6.636;2023-07-08T13:56:07;7.25;;;4.28;;
52940;SDS011;62001;53.366;6.636;2023-07-08T13:58:46;8.30;;;3.97;;
52940;SDS011;62001;53.366;6.636;2023-07-08T14:01:21;4.93;;;4.15;;
52940;SDS011;62001;53.366;6.636;2023-07-08T14:03:53;5.25;;;3.95;;
52940;SDS011;62001;53.366;6.636;2023-07-08T14:06:28;6.13;;;4.20;;
52940;SDS011;62001;53.366;6.636;2023-07-08T14:08:59;7.93;;;4.15;;
52940;SDS011;62001;53.366;6.636;2023-07-08T14:11:42;5.43;;;3.75;;
52940;SDS011;62001;53.366;6.636;2023-07-08T14:14:12;5.35;;;4.22;;
52940;SDS011;62001;53.366;6.636;2023-07-08T14:16:44;6.47;;;4.35;;
52940;SDS011;62001;53.366;6.636;2023-07-08T14:19:19;8.13;;;4.40;;
52940;SDS011;62001;53.366;6.636;2023-07-08T14:21:55;4.57;;;3.88;;
52940;SDS011;62001;53.366;6.636;2023-07-08T14:24:28;8.50;;;4.47;;
52940;SDS011;62001;53.366;6.636;2023-07-08T14:26:57;4.80;;;4.35;;
52940;SDS011;62001;53.366;6.636;2023-07-08T14:29:25;10.05;;;4.50;;
52940;SDS011;62001;53.366;6.636;2023-07-08T14:31:51;9.20;;;4.57;;
52940;SDS011;62001;53.366;6.636;2023-07-08T14:34:20;6.03;;;3.95;;
52940;SDS011;62001;53.366;6.636;2023-07-08T14:36:49;6.72;;;3.80;;
52940;SDS011;62001;53.366;6.636;2023-07-08T14:39:16;8.00;;;4.45;;
52940;SDS011;62001;53.366;6.636;2023-07-08T14:41:43;7.35;;;3.95;;
52940;SDS011;62001;53.366;6.636;2023-07-08T14:44:24;5.55;;;4.38;;
52940;SDS011;62001;53.366;6.636;2023-07-08T14:47:00;5.90;;;4.40;;
52940;SDS011;62001;53.366;6.636;2023-07-08T14:49:26;7.85;;;4.60;;
52940;SDS011;62001;53.366;6.636;2023-07-08T14:51:53;8.23;;;4.75;;
52940;SDS011;62001;53.366;6.636;2023-07-08T14:54:19;9.70;;;4.75;;
52940;SDS011;62001;53.366;6.636;2023-07-08T14:56:46;6.25;;;4.13;;
52940;SDS011;62001;53.366;6.636;2023-07-08T14:59:23;8.02;;;4.55;;
52940;SDS011;62001;53.366;6.636;2023-07-08T15:01:51;6.07;;;4.60;;
52940;SDS011;62001;53.366;6.636;2023-07-08T15:04:21;6.07;;;4.50;;
52940;SDS011;62001;53.366;6.636;2023-07-08T15:06:47;6.93;;;4.35;;
52940;SDS011;62001;53.366;6.636;2023-07-08T15:09:14;7.15;;;5.00;;
52940;SDS011;62001;53.366;6.636;2023-07-08T15:11:42;6.18;;;4.90;;
52940;SDS011;62001;53.366;6.636;2023-07-08T15:14:22;7.70;;;4.65;;
52940;SDS011;62001;53.366;6.636;2023-07-08T15:16:50;4.80;;;4.35;;
52940;SDS011;62001;53.366;6.636;2023-07-08T15:19:18;5.90;;;4.53;;
52940;SDS011;62001;53.366;6.636;2023-07-08T15:21:47;5.32;;;4.82;;
52940;SDS011;62001;53.366;6.636;2023-07-08T15:24:19;6.22;;;4.40;;
52940;SDS011;62001;53.366;6.636;2023-07-08T15:26:48;6.43;;;4.50;;
52940;SDS011;62001;53.366;6.636;2023-07-08T15:29:19;7.28;;;4.65;;
52940;SDS011;62001;53.366;6.636;2023-07-08T15:34:27;5.35;;;4.28;;
52940;SDS011;62001;53.366;6.636;2023-07-08T15:36:53;5.90;;;4.45;;
52940;SDS011;62001;53.366;6.636;2023-07-08T15:39:20;7.28;;;4.65;;
52940;SDS011;62001;53.366;6.636;2023-07-08T15:44:17;6.57;;;4.45;;
52940;SDS011;62001;53.366;6.636;2023-07-08T15:46:47;7.25;;;4.78;;
52940;SDS011;62001;53.366;6.636;2023-07-08T15:49:19;7.78;;;4.80;;
52940;SDS011;62001;53.366;6.636;2023-07-08T15:51:47;10.00;;;4.82;;
52940;SDS011;62001;53.366;6.636;2023-07-08T15:54:14;5.53;;;4.60;;
52940;SDS011;62001;53.366;6.636;2023-07-08T15:56:40;5.72;;;4.90;;
52940;SDS011;62001;53.366;6.636;2023-07-08T15:59:13;8.48;;;4.57;;
52940;SDS011;62001;53.366;6.636;2023-07-08T16:01:49;7.93;;;5.22;;
52940;SDS011;62001;53.366;6.636;2023-07-08T16:04:18;6.13;;;4.68;;
52940;SDS011;62001;53.366;6.636;2023-07-08T16:06:52;6.88;;;4.63;;
52940;SDS011;62001;53.366;6.636;2023-07-08T16:09:24;7.10;;;4.88;;
52940;SDS011;62001;53.366;6.636;2023-07-08T16:11:52;7.75;;;4.95;;
52940;SDS011;62001;53.366;6.636;2023-07-08T16:14:18;10.05;;;5.28;;
52940;SDS011;62001;53.366;6.636;2023-07-08T16:16:45;5.97;;;4.78;;
52940;SDS011;62001;53.366;6.636;2023-07-08T16:19:11;6.43;;;4.65;;
52940;SDS011;62001;53.366;6.636;2023-07-08T16:21:39;7.55;;;4.97;;
52940;SDS011;62001;53.366;6.636;2023-07-08T16:24:06;8.00;;;5.18;;
52940;SDS011;62001;53.366;6.636;2023-07-08T16:26:35;6.40;;;4.82;;